createdAt,value
2018-11-22T00:00:58.380Z,36.00
2018-11-22T00:03:28.564Z,31.43
2018-11-22T00:05:58.815Z,35.97
2018-11-22T00:08:29.058Z,28.63
2018-11-22T00:10:59.278Z,33.10
2018-11-22T00:13:29.509Z,35.70
2018-11-22T00:15:59.694Z,33.57
2018-11-22T00:18:29.949Z,34.90
2018-11-22T00:21:00.247Z,31.03
2018-11-22T00:23:30.416Z,33.00
2018-11-22T00:26:00.714Z,31.73
2018-11-22T00:28:30.899Z,32.63
2018-11-22T00:31:01.122Z,29.53
2018-11-22T00:33:31.357Z,30.77
2018-11-22T00:36:01.592Z,29.07
2018-11-22T00:38:31.821Z,30.70
2018-11-22T00:41:02.075Z,30.97
2018-11-22T00:43:32.349Z,30.90
2018-11-22T00:46:02.600Z,33.40
2018-11-22T00:48:32.837Z,35.67
2018-11-22T00:51:03.090Z,30.20
2018-11-22T00:53:33.346Z,34.30
2018-11-22T00:56:03.580Z,34.60
2018-11-22T00:58:33.870Z,31.60
2018-11-22T01:01:04.122Z,35.23
2018-11-22T01:03:34.391Z,30.50
2018-11-22T01:06:04.903Z,34.47
2018-11-22T01:08:35.162Z,29.20
2018-11-22T01:11:05.497Z,30.93
2018-11-22T01:13:35.743Z,30.13
2018-11-22T01:16:05.978Z,32.67
2018-11-22T01:18:36.287Z,33.07
2018-11-22T01:21:08.958Z,30.70
2018-11-22T01:23:39.212Z,31.80
2018-11-22T01:26:09.429Z,26.47
2018-11-22T01:28:39.700Z,26.53
2018-11-22T01:31:09.920Z,28.90
2018-11-22T01:33:40.235Z,26.93
2018-11-22T01:36:10.542Z,29.70
2018-11-22T01:38:40.796Z,30.93
2018-11-22T01:41:11.012Z,29.23
2018-11-22T01:43:41.303Z,31.50
2018-11-22T01:46:11.556Z,40.40
2018-11-22T12:16:40.212Z,15.50
2018-11-22T12:19:10.483Z,47.37
2018-11-22T12:21:40.903Z,12.27
2018-11-22T12:24:11.144Z,7.57
2018-11-22T12:26:41.457Z,9.00
2018-11-22T12:29:11.737Z,7.27
2018-11-22T12:31:42.037Z,10.13
2018-11-22T12:34:20.298Z,6.57
2018-11-22T12:36:54.940Z,6.93
2018-11-22T12:39:25.373Z,6.80
2018-11-22T12:41:55.614Z,5.50
2018-11-22T12:44:25.954Z,8.23
2018-11-22T12:46:56.348Z,7.03
2018-11-22T12:49:26.721Z,8.40
2018-11-22T12:51:57.137Z,18.07
2018-11-22T12:54:27.529Z,20.67
2018-11-22T12:56:57.865Z,31.40
2018-11-22T12:59:28.187Z,8.17
2018-11-22T13:01:58.473Z,8.67
2018-11-22T13:04:28.731Z,9.03
2018-11-22T13:06:59.186Z,8.63
2018-11-22T13:09:29.469Z,9.63
2018-11-22T13:11:59.756Z,12.53
2018-11-22T13:14:30.058Z,10.57
2018-11-22T13:17:00.410Z,11.83
2018-11-22T13:19:30.705Z,10.70
2018-11-22T13:22:01.006Z,10.43
2018-11-22T13:24:31.385Z,11.17
2018-11-22T13:27:01.654Z,21.33
2018-11-22T13:29:31.953Z,33.40
2018-11-22T13:32:02.279Z,65.37
2018-11-22T13:34:32.539Z,17.47
2018-11-22T13:37:02.839Z,12.73
2018-11-22T13:39:33.189Z,14.73
2018-11-22T13:42:03.495Z,14.00
2018-11-22T13:44:33.822Z,11.93
2018-11-22T13:47:04.107Z,12.13
2018-11-22T13:49:34.419Z,17.60
2018-11-22T13:52:04.713Z,12.67
2018-11-22T13:54:34.957Z,11.87
2018-11-22T13:57:05.553Z,12.90
2018-11-22T13:59:35.894Z,12.37
2018-11-22T14:02:06.635Z,13.43
2018-11-22T14:04:36.902Z,11.80
2018-11-22T14:07:07.230Z,14.73
2018-11-22T14:09:37.503Z,14.67
2018-11-22T14:12:07.813Z,15.03
2018-11-22T14:14:38.128Z,15.23
2018-11-22T14:17:08.394Z,14.80
2018-11-22T14:19:38.822Z,17.80
2018-11-22T14:22:09.162Z,19.33
2018-11-22T14:24:39.479Z,15.97
2018-11-22T14:27:09.811Z,14.77
2018-11-22T14:29:40.120Z,15.33
2018-11-22T14:32:10.456Z,16.87
2018-11-22T14:34:40.829Z,18.73
2018-11-22T14:37:11.101Z,18.97
2018-11-22T14:39:41.398Z,18.73
2018-11-22T14:42:11.714Z,18.00
2018-11-22T14:44:42.109Z,19.07
2018-11-22T14:47:12.401Z,17.47
2018-11-22T14:49:42.683Z,15.53
2018-11-22T14:52:13.100Z,15.13
2018-11-22T14:54:43.363Z,15.87
2018-11-22T14:57:13.670Z,16.40
2018-11-22T14:59:44.042Z,16.20
2018-11-22T15:02:14.474Z,16.70
2018-11-22T15:04:44.838Z,17.40
2018-11-22T15:07:16.119Z,16.07
2018-11-22T15:09:46.105Z,15.80
2018-11-22T15:12:16.601Z,18.70
2018-11-22T15:14:46.966Z,16.87
2018-11-22T15:17:17.339Z,15.73
2018-11-22T15:19:47.679Z,19.00
2018-11-22T15:22:17.995Z,15.20
2018-11-22T15:24:48.365Z,19.97
2018-11-22T15:27:18.737Z,16.33
2018-11-22T15:29:49.036Z,19.23
2018-11-22T15:32:19.421Z,15.37
2018-11-22T15:34:49.764Z,22.60
2018-11-22T15:37:20.049Z,15.33
2018-11-22T15:39:52.044Z,18.87
2018-11-22T15:42:22.351Z,17.83
2018-11-22T15:44:52.690Z,15.53
2018-11-22T15:47:22.988Z,18.63
2018-11-22T15:49:53.300Z,17.70
2018-11-22T15:52:23.717Z,23.10
2018-11-22T15:54:54.056Z,18.53
2018-11-22T15:57:24.387Z,17.53
2018-11-22T15:59:54.693Z,18.30
2018-11-22T16:02:25.025Z,17.37
2018-11-22T16:04:56.050Z,19.40
2018-11-22T16:07:26.357Z,18.27
2018-11-22T16:09:56.742Z,23.03
2018-11-22T16:12:27.695Z,18.70
2018-11-22T16:14:58.012Z,23.20
2018-11-22T16:17:28.345Z,17.20
2018-11-22T16:19:58.769Z,21.00
2018-11-22T16:22:29.068Z,19.60
2018-11-22T16:24:59.391Z,21.67
2018-11-22T16:27:29.670Z,20.27
2018-11-22T16:29:59.947Z,22.33
2018-11-22T16:32:30.293Z,24.27
2018-11-22T16:35:00.752Z,19.70
2018-11-22T16:37:31.110Z,22.57
2018-11-22T16:40:01.417Z,17.17
2018-11-22T16:42:31.718Z,17.10
2018-11-22T16:45:02.008Z,19.00
2018-11-22T16:47:32.365Z,21.83
2018-11-22T16:50:02.663Z,20.37
2018-11-22T16:52:33.008Z,17.67
2018-11-22T16:55:03.391Z,16.53
2018-11-22T16:57:33.985Z,18.73
2018-11-22T17:00:04.355Z,14.87
2018-11-22T17:02:34.628Z,20.83
2018-11-22T17:05:05.284Z,14.70
2018-11-22T17:07:35.542Z,18.10
2018-11-22T17:10:07.140Z,17.53
2018-11-22T17:12:37.436Z,17.40
2018-11-22T17:15:12.029Z,12.83
2018-11-22T17:17:42.460Z,16.47
2018-11-22T17:20:14.302Z,19.40
2018-11-22T17:22:45.407Z,17.60
2018-11-22T17:25:18.230Z,16.20
2018-11-22T17:27:49.742Z,14.77
2018-11-22T17:30:21.642Z,16.77
2018-11-22T17:32:52.021Z,19.63
2018-11-22T17:35:23.731Z,13.70
2018-11-22T17:37:55.259Z,16.87
2018-11-22T17:40:27.097Z,16.87
2018-11-22T17:42:57.419Z,16.47
2018-11-22T17:45:29.380Z,16.87
2018-11-22T17:47:59.739Z,18.40
2018-11-22T17:50:32.723Z,19.60
2018-11-22T17:53:03.408Z,17.60
2018-11-22T17:55:34.284Z,18.87
2018-11-22T17:58:04.795Z,19.93
2018-11-22T18:00:36.628Z,21.23
2018-11-22T18:03:08.273Z,18.23
2018-11-22T18:05:38.637Z,19.67
2018-11-22T18:08:08.977Z,17.30
2018-11-22T18:10:40.640Z,22.20
2018-11-22T18:13:10.955Z,18.10
2018-11-22T18:15:46.440Z,17.80
2018-11-22T18:18:16.806Z,21.20
2018-11-22T18:20:48.699Z,18.47
2018-11-22T18:23:18.985Z,20.17
2018-11-22T18:25:49.364Z,20.43
2018-11-22T18:28:19.750Z,19.77
2018-11-22T18:30:50.155Z,20.40
2018-11-22T18:33:20.573Z,23.27
2018-11-22T18:35:51.026Z,20.73
2018-11-22T18:38:21.432Z,20.00
2018-11-22T18:40:51.879Z,20.90
2018-11-22T18:43:22.192Z,21.43
2018-11-22T18:45:52.536Z,20.97
2018-11-22T18:48:22.875Z,23.27
2018-11-22T18:50:53.187Z,21.20
2018-11-22T18:53:23.517Z,24.63
2018-11-22T18:55:53.887Z,22.43
2018-11-22T18:58:24.256Z,21.70
2018-11-22T19:00:54.538Z,27.23
2018-11-22T19:03:24.915Z,18.67
2018-11-22T19:05:55.281Z,21.33
2018-11-22T19:08:25.641Z,18.70
2018-11-22T19:10:55.980Z,22.00
2018-11-22T19:13:26.291Z,21.33
2018-11-22T19:15:56.769Z,22.47
2018-11-22T19:18:27.049Z,21.30
2018-11-22T19:20:57.434Z,19.47
2018-11-22T19:23:27.732Z,16.30
2018-11-22T19:25:58.088Z,17.93
2018-11-22T19:28:28.438Z,21.47
2018-11-22T19:30:58.976Z,21.93
2018-11-22T19:33:29.463Z,20.13
2018-11-22T19:35:59.989Z,20.63
2018-11-22T19:38:30.341Z,21.50
2018-11-22T19:41:00.838Z,19.70
2018-11-22T19:43:31.169Z,22.70
2018-11-22T19:46:01.559Z,28.63
2018-11-22T19:48:32.785Z,30.60
2018-11-22T19:51:05.819Z,39.40
2018-11-22T19:53:33.290Z,38.00
2018-11-22T19:56:03.652Z,35.87
2018-11-22T19:58:33.962Z,38.07
2018-11-22T20:01:07.738Z,40.57
2018-11-22T20:03:35.052Z,41.13
2018-11-22T20:06:06.446Z,38.10
2018-11-22T20:08:37.751Z,38.67
2018-11-22T20:11:08.865Z,35.20
2018-11-22T20:13:39.289Z,40.90
2018-11-22T20:16:10.466Z,36.10
2018-11-22T20:18:40.897Z,40.53
2018-11-22T20:21:11.265Z,37.37
2018-11-22T20:23:41.648Z,39.20
2018-11-22T20:26:12.654Z,40.07
2018-11-22T20:28:43.000Z,39.17
2018-11-22T20:31:13.412Z,35.43
2018-11-22T20:33:43.815Z,36.87
2018-11-22T20:36:14.101Z,38.20
2018-11-22T20:38:44.468Z,35.80
2018-11-22T20:41:14.768Z,39.93
2018-11-22T20:43:45.071Z,38.07
2018-11-22T20:46:15.356Z,42.00
2018-11-22T20:48:45.686Z,41.30
2018-11-22T20:51:16.047Z,42.50
2018-11-22T20:53:46.413Z,39.10
2018-11-22T20:56:16.669Z,37.60
2018-11-22T20:58:46.933Z,39.63
2018-11-22T21:01:17.447Z,40.20
2018-11-22T21:03:48.926Z,39.20
2018-11-22T21:06:19.243Z,37.73
2018-11-22T21:08:49.571Z,37.03
2018-11-22T21:11:19.921Z,35.63
2018-11-22T21:13:50.274Z,37.07
2018-11-22T21:16:20.533Z,32.40
2018-11-22T21:18:50.826Z,37.03
2018-11-22T21:21:21.123Z,36.17
2018-11-22T21:23:51.422Z,30.70
2018-11-22T21:26:21.674Z,33.33
2018-11-22T21:28:52.944Z,26.50
2018-11-22T21:31:23.227Z,29.17
2018-11-22T21:33:53.551Z,30.37
2018-11-22T21:36:23.868Z,33.03
2018-11-22T21:38:54.176Z,26.63
2018-11-22T21:41:24.468Z,25.30
2018-11-22T21:43:54.746Z,26.77
2018-11-22T21:46:30.110Z,27.00
2018-11-22T21:49:01.661Z,25.00
2018-11-22T21:51:39.262Z,26.10
2018-11-22T21:54:02.845Z,26.00
2018-11-22T21:56:33.097Z,27.80
2018-11-22T21:59:03.411Z,26.93
2018-11-22T22:01:33.675Z,21.93
2018-11-22T22:04:04.003Z,26.17
2018-11-22T22:06:34.266Z,24.60
2018-11-22T22:09:05.695Z,24.93
2018-11-22T22:11:36.036Z,25.53
2018-11-22T22:14:06.755Z,25.27
2018-11-22T22:16:37.068Z,26.30
2018-11-22T22:19:07.353Z,27.20
2018-11-22T22:21:37.674Z,27.70
2018-11-22T22:24:07.978Z,23.53
2018-11-22T22:26:38.225Z,26.03
2018-11-22T22:29:08.593Z,24.07
2018-11-22T22:31:38.837Z,26.20
2018-11-22T22:34:09.137Z,29.83
2018-11-22T22:36:39.444Z,33.70
2018-11-22T22:39:11.841Z,29.47
2018-11-22T22:41:42.096Z,26.80
2018-11-22T22:44:12.411Z,33.83
2018-11-22T22:46:42.653Z,26.77
2018-11-22T22:49:12.934Z,26.60
2018-11-22T22:51:43.203Z,32.57
2018-11-22T22:54:13.488Z,31.97
2018-11-22T22:56:43.746Z,34.67
2018-11-22T22:59:14.042Z,34.03
2018-11-22T23:01:44.278Z,28.07
2018-11-22T23:04:14.627Z,29.47
2018-11-22T23:06:44.939Z,34.97
2018-11-22T23:09:15.306Z,31.37
2018-11-22T23:11:45.558Z,29.17
2018-11-22T23:14:15.893Z,32.23
2018-11-22T23:16:46.244Z,34.33
2018-11-22T23:19:16.938Z,30.67
2018-11-22T23:21:47.229Z,31.83
2018-11-22T23:24:17.545Z,33.03
2018-11-22T23:26:47.805Z,35.60
2018-11-22T23:29:18.143Z,33.10
2018-11-22T23:31:48.446Z,30.77
2018-11-22T23:34:18.761Z,36.83
2018-11-22T23:36:49.098Z,36.37
2018-11-22T23:39:19.467Z,35.37
2018-11-22T23:41:49.761Z,38.33
2018-11-22T23:44:20.045Z,34.30
2018-11-22T23:46:51.961Z,36.87
2018-11-22T23:49:22.229Z,45.27
2018-11-22T23:51:52.472Z,37.07
2018-11-22T23:54:22.807Z,37.77
2018-11-22T23:56:53.060Z,32.77
2018-11-22T23:59:23.345Z,40.50
